Time;durP1;ratioP1;P1;durP2;ratioP2;P2;SDS_P1;SDS_P2;PMS_P1;PMS_P2;Temp;Humidity;BMP_temperature;BMP_pressure;BME280_temperature;BME280_humidity;BME280_pressure;Samples;Min_cycle;Max_cycle;Signal;HPM_P1;HPM_P2
2021/11/30 11:51:37;;;;;;;;;;;;;;;14.49;31.45;100572.25;4857266;26;19933;-92
2021/11/30 11:54:05;;;;;;;;;;;;;;;14.32;30.89;100572.78;4990538;28;20020;-80
2021/11/30 11:56:31;;;;;;;;;;;;;;;14.57;31.14;100571.16;4963789;28;19925;-80
2021/11/30 11:59:12;;;;;;;;;;;;;;;14.41;30.61;100576.09;4962962;28;19928;-79
2021/11/30 12:01:39;;;;;;;;;;;;;;;14.61;30.06;100574.81;4979747;28;19929;-79
2021/11/30 12:04:08;;;;;;;;;;;;;;;14.50;30.75;100570.25;4979887;28;19918;-80
2021/11/30 12:06:35;;;;;;;;;;;;;;;14.26;30.12;100577.91;4980511;28;19978;-79
2021/11/30 12:09:17;;;;;;;;;;;;;;;14.12;29.76;100574.91;4979366;28;20273;-79
2021/11/30 12:11:44;;;;;;;;;;;;;;;13.90;30.04;100573.75;4963067;28;20408;-79
2021/11/30 12:14:15;;;;;;;;;;;;;;;13.80;29.13;100572.44;4962737;28;19944;-79
2021/11/30 12:16:58;;;;;;;;;;;;;;;13.82;28.68;100575.66;4979436;28;19918;-79
2021/11/30 12:19:26;;;;;;;;;;;;;;;13.43;28.49;100569.41;4980731;28;20202;-79
2021/11/30 12:21:52;;;;;;;;;;;;;;;13.28;29.31;100564.75;4981657;28;19968;-78
2021/11/30 12:24:33;;;;;;;;;;;;;;;13.32;31.78;100571.22;4960929;28;19924;-79
2021/11/30 12:26:58;;;;;;;;;;;;;;;13.37;32.29;100568.13;4978160;28;19918;-78
2021/11/30 12:29:30;;;;;;;;;;;;;;;13.56;32.27;100570.03;4945407;28;19965;-78
2021/11/30 12:31:56;;;;;;;;;;;;;;;13.67;32.61;100575.78;4979897;28;19918;-78
2021/11/30 12:34:38;;;;;;;;;;;;;;;13.48;31.01;100576.69;4978812;28;19918;-78
2021/11/30 12:37:16;;;;;;;;;;;;;;;12.92;30.01;100575.22;4980537;28;20415;-78
2021/11/30 12:39:55;;;;;;;;;;;;;;;13.08;31.50;100575.13;4968466;28;19925;-78
2021/11/30 12:42:20;;;;;;;;;;;;;;;13.34;32.02;100577.22;4984981;28;19918;-79
2021/11/30 12:44:46;;;;;;;;;;;;;;;13.46;33.27;100579.84;4977351;28;20396;-78
2021/11/30 12:47:19;;;;;;;;;;;;;;;13.38;32.78;100571.72;4976612;28;19922;-79
2021/11/30 12:49:46;;;;;;;;;;;;;;;13.48;32.46;100573.88;4959032;28;19918;-78
2021/11/30 12:52:11;;;;;;;;;;;;;;;13.48;32.81;100580.28;4943105;28;19990;-79
2021/11/30 12:54:39;;;;;;;;;;;;;;;13.40;32.90;100578.53;4976873;28;20013;-79
2021/11/30 12:57:06;;;;;;;;;;;;;;;13.25;31.88;100576.66;4976163;28;20340;-79
2021/11/30 12:59:37;;;;;;;;;;;;;;;13.03;32.12;100569.84;4959446;28;19932;-79
2021/11/30 13:02:16;;;;;;;;;;;;;;;13.12;33.33;100573.22;4984255;28;20340;-80
2021/11/30 13:04:44;;;;;;;;;;;;;;;13.19;33.61;100566.94;4985003;28;19965;-80
2021/11/30 13:07:12;;;;;;;;;;;;;;;13.12;33.90;100573.22;4963757;28;19922;-79
2021/11/30 13:09:39;;;;;;;;;;;;;;;13.14;33.98;100575.63;4976871;28;20329;-79
2021/11/30 13:12:05;;;;;;;;;;;;;;;13.08;33.33;100577.91;4976540;28;19918;-79
2021/11/30 13:14:31;;;;;;;;;;;;;;;12.96;32.17;100581.69;4975897;28;19925;-79
2021/11/30 13:16:56;;;;;;;;;;;;;;;12.97;32.95;100577.72;4976263;28;19922;-79
2021/11/30 13:19:21;;;;;;;;;;;;;;;12.90;33.44;100572.00;4976920;28;19918;-79
2021/11/30 13:22:10;;;;;;;;;;;;;;;12.96;33.61;100576.09;4959179;28;19944;-79
2021/11/30 13:24:41;;;;;;;;;;;;;;;12.62;33.01;100575.00;4976730;28;20262;-79
2021/11/30 13:27:08;;;;;;;;;;;;;;;12.73;33.91;100575.22;4978002;28;20024;-79
2021/11/30 13:29:34;;;;;;;;;;;;;;;12.76;34.78;100575.31;4960807;28;19925;-79
2021/11/30 13:32:03;;;;;;;;;;;;;;;12.72;34.82;100574.41;4959663;28;19918;-79
2021/11/30 13:34:29;;;;;;;;;;;;;;;12.68;34.66;100581.94;4960684;28;19918;-79
2021/11/30 13:36:58;;;;;;;;;;;;;;;12.61;34.34;100580.97;4961409;28;19981;-79
2021/11/30 13:39:23;;;;;;;;;;;;;;;12.49;34.04;100593.88;4966247;28;19918;-79
2021/11/30 13:41:49;;;;;;;;;;;;;;;12.47;32.54;100587.06;4988026;28;19949;-80
2021/11/30 13:44:14;;;;;;;;;;;;;;;12.45;33.14;100590.19;4971723;28;19918;-79
2021/11/30 13:46:41;;;;;;;;;;;;;;;12.64;34.00;100597.78;4970851;28;19969;-79
2021/11/30 13:49:07;;;;;;;;;;;;;;;12.47;35.48;100601.03;4985190;28;19922;-80
2021/11/30 13:51:40;;;;;;;;;;;;;;;12.40;36.69;100604.44;4986009;28;19922;-79
2021/11/30 13:54:07;;;;;;;;;;;;;;;12.45;37.07;100611.72;4967727;28;19981;-79
2021/11/30 13:56:45;;;;;;;;;;;;;;;12.50;37.71;100606.66;4969600;28;20321;-79
2021/11/30 13:59:20;;;;;;;;;;;;;;;12.30;37.10;100605.00;4988655;28;19925;-79
2021/11/30 14:01:48;;;;;;;;;;;;;;;11.98;36.38;100610.66;4967484;28;20397;-78
2021/11/30 14:04:14;;;;;;;;;;;;;;;11.98;37.35;100610.66;4967198;28;19957;-79
2021/11/30 14:06:40;;;;;;;;;;;;;;;12.01;38.24;100604.34;4981688;28;20064;-79
2021/11/30 14:09:11;;;;;;;;;;;;;;;12.06;38.42;100612.44;4982847;28;19962;-79
2021/11/30 14:11:38;;;;;;;;;;;;;;;12.13;38.41;100608.22;4980995;28;19929;-79
2021/11/30 14:14:03;;;;;;;;;;;;;;;12.24;37.67;100610.06;4964003;28;19922;-79
2021/11/30 14:16:49;;;;;;;;;;;;;;;12.11;36.55;100607.78;4966172;28;19925;-79
2021/11/30 14:19:15;;;;;;;;;;;;;;;12.00;36.30;100607.53;4981166;28;19941;-79
2021/11/30 14:21:56;;;;;;;;;;;;;;;11.90;36.65;100614.44;4964071;28;20369;-79
2021/11/30 14:24:22;;;;;;;;;;;;;;;11.71;36.37;100622.69;4981099;28;19969;-79
2021/11/30 14:26:47;;;;;;;;;;;;;;;11.62;35.69;100625.69;4983751;28;19934;-79
2021/11/30 14:29:37;;;;;;;;;;;;;;;11.61;35.93;100623.22;4981492;28;19922;-78
2021/11/30 14:32:03;;;;;;;;;;;;;;;11.54;35.88;100627.47;4981426;28;20365;-79
2021/11/30 14:34:33;;;;;;;;;;;;;;;11.57;36.90;100627.94;4981139;28;19918;-79
2021/11/30 14:37:19;;;;;;;;;;;;;;;11.29;35.88;100623.19;4965700;28;19918;-79
2021/11/30 14:39:45;;;;;;;;;;;;;;;11.17;36.77;100626.88;4982003;28;19925;-79
2021/11/30 14:42:23;;;;;;;;;;;;;;;11.01;36.41;100628.81;4982262;28;20009;-79
2021/11/30 14:44:49;;;;;;;;;;;;;;;10.97;37.79;100631.50;4980044;28;19961;-79
2021/11/30 14:47:34;;;;;;;;;;;;;;;10.87;37.89;100629.22;4964252;28;19918;-79
2021/11/30 14:50:01;;;;;;;;;;;;;;;10.70;37.93;100624.75;4981150;28;19925;-79
2021/11/30 14:52:41;;;;;;;;;;;;;;;10.51;37.08;100615.44;4963158;28;19922;-79
2021/11/30 14:55:20;;;;;;;;;;;;;;;10.51;38.23;100610.66;4965026;28;20272;-79
2021/11/30 14:58:06;;;;;;;;;;;;;;;10.40;39.61;100624.25;4979596;28;19925;-79
2021/11/30 15:00:32;;;;;;;;;;;;;;;10.31;40.58;100617.19;4980184;28;19969;-78
2021/11/30 15:03:05;;;;;;;;;;;;;;;10.21;41.37;100618.47;4980494;28;19925;-79
2021/11/30 15:05:42;;;;;;;;;;;;;;;10.09;41.76;100621.25;4980781;28;19977;-79
2021/11/30 15:08:22;;;;;;;;;;;;;;;9.96;42.56;100629.63;4981409;28;19929;-79
2021/11/30 15:10:58;;;;;;;;;;;;;;;9.78;44.88;100630.97;4964507;28;19976;-79
2021/11/30 15:13:33;;;;;;;;;;;;;;;9.63;45.95;100643.59;4965671;28;19925;-79
2021/11/30 15:15:59;;;;;;;;;;;;;;;9.49;47.94;100653.41;4982922;28;19925;-79
2021/11/30 15:18:24;;;;;;;;;;;;;;;9.29;49.63;100657.88;4983187;28;19972;-79
2021/11/30 15:21:04;;;;;;;;;;;;;;;9.18;51.01;100660.28;4984270;28;19957;-80
2021/11/30 15:23:30;;;;;;;;;;;;;;;9.00;51.82;100661.56;4985574;28;19925;-80
2021/11/30 15:29:01;;;;;;;;;;;;;;;8.77;52.32;100655.59;4949460;28;19918;-79
2021/11/30 15:31:26;;;;;;;;;;;;;;;8.61;53.46;100664.50;4978874;28;20292;-79
2021/11/30 15:33:52;;;;;;;;;;;;;;;8.48;53.78;100670.34;4978692;28;19918;-79
2021/11/30 15:36:18;;;;;;;;;;;;;;;8.40;54.30;100670.03;4961799;28;19918;-79
2021/11/30 15:38:47;;;;;;;;;;;;;;;8.40;54.01;100672.00;4960971;28;19918;-79
2021/11/30 15:41:13;;;;;;;;;;;;;;;8.25;53.55;100670.59;4961242;28;20312;-79
2021/11/30 15:43:38;;;;;;;;;;;;;;;8.11;53.43;100673.63;4960757;28;20400;-79
2021/11/30 15:46:04;;;;;;;;;;;;;;;8.10;54.72;100680.31;4960904;28;19922;-79
2021/11/30 15:48:37;;;;;;;;;;;;;;;7.98;54.84;100679.38;4961070;28;19925;-79
2021/11/30 15:51:03;;;;;;;;;;;;;;;7.90;56.04;100685.78;4961192;28;19969;-79
2021/11/30 15:53:28;;;;;;;;;;;;;;;7.76;56.63;100694.31;4977113;28;20404;-79
2021/11/30 15:58:48;;;;;;;;;;;;;;;7.63;57.18;100696.16;4978722;28;20325;-79
2021/11/30 16:01:13;;;;;;;;;;;;;;;7.56;58.75;100702.22;4961183;28;20024;-78
2021/11/30 16:03:38;;;;;;;;;;;;;;;7.49;59.38;100698.31;4977616;28;19968;-78
2021/11/30 16:06:07;;;;;;;;;;;;;;;7.46;58.63;100698.97;4962010;28;19972;-79
2021/11/30 16:08:33;;;;;;;;;;;;;;;7.34;59.41;100703.22;4961151;28;19968;-79
2021/11/30 16:10:58;;;;;;;;;;;;;;;7.29;60.01;100702.56;4977212;28;19961;-79
2021/11/30 16:13:23;;;;;;;;;;;;;;;7.28;60.63;100710.06;4961503;28;19993;-79
2021/11/30 16:15:49;;;;;;;;;;;;;;;7.25;60.73;100723.75;4977001;28;19919;-79
2021/11/30 16:21:22;;;;;;;;;;;;;;;7.06;61.43;100719.38;4978559;28;19926;-79
2021/11/30 16:23:48;;;;;;;;;;;;;;;6.98;61.55;100724.91;4960887;28;19932;-79
2021/11/30 16:26:13;;;;;;;;;;;;;;;6.89;61.43;100737.94;4977733;28;19922;-79
2021/11/30 16:28:44;;;;;;;;;;;;;;;6.78;61.83;100741.00;4960863;28;20249;-80
2021/11/30 16:31:10;;;;;;;;;;;;;;;6.66;61.49;100749.13;4976484;28;19918;-78
2021/11/30 16:33:38;;;;;;;;;;;;;;;6.59;61.42;100737.72;4960523;28;19919;-77
2021/11/30 16:36:03;;;;;;;;;;;;;;;6.65;61.54;100752.19;4977675;28;19922;-79
2021/11/30 16:38:29;;;;;;;;;;;;;;;6.56;62.79;100758.53;4960142;28;19918;-78
2021/11/30 16:41:04;;;;;;;;;;;;;;;6.61;62.85;100760.34;4959389;28;19918;-79
2021/11/30 16:43:30;;;;;;;;;;;;;;;6.46;63.16;100766.31;4975977;28;19918;-78
2021/11/30 16:45:55;;;;;;;;;;;;;;;6.38;62.96;100759.59;4976728;28;20284;-77
2021/11/30 16:48:20;;;;;;;;;;;;;;;6.30;61.61;100766.75;4959344;28;19926;-77
2021/11/30 16:50:46;;;;;;;;;;;;;;;6.34;62.07;100758.66;4975088;28;19929;-78
2021/11/30 16:53:11;;;;;;;;;;;;;;;6.25;61.44;100763.31;4959575;28;19972;-78
2021/11/30 16:55:37;;;;;;;;;;;;;;;6.17;60.88;100764.91;4959462;28;19965;-78
2021/11/30 16:58:06;;;;;;;;;;;;;;;6.11;60.71;100768.94;4959248;28;20354;-77
2021/11/30 17:00:35;;;;;;;;;;;;;;;5.98;61.47;100776.22;4959526;28;19925;-78
2021/11/30 17:03:02;;;;;;;;;;;;;;;5.97;62.86;100773.78;4975729;28;19926;-79
2021/11/30 17:05:34;;;;;;;;;;;;;;;5.95;62.87;100771.31;4976767;28;19928;-79
2021/11/30 17:08:00;;;;;;;;;;;;;;;6.02;62.59;100768.13;4959554;28;19925;-77
2021/11/30 17:10:25;;;;;;;;;;;;;;;5.99;63.26;100777.03;4959637;28;19918;-78
2021/11/30 17:12:51;;;;;;;;;;;;;;;5.87;62.62;100772.06;4959407;28;20310;-79
2021/11/30 17:15:16;;;;;;;;;;;;;;;5.86;64.19;100764.06;4978587;28;19924;-78
2021/11/30 17:17:42;;;;;;;;;;;;;;;5.83;63.91;100771.06;4965358;28;19918;-79
2021/11/30 17:20:11;;;;;;;;;;;;;;;5.92;62.04;100774.72;4966037;28;19925;-79
2021/11/30 17:22:36;;;;;;;;;;;;;;;5.92;58.82;100771.16;4965987;28;19922;-78
2021/11/30 17:25:41;;;;;;;;;;;;;;;5.92;59.22;100776.66;4965532;28;20421;-79
2021/11/30 17:28:07;;;;;;;;;;;;;;;5.91;60.94;100780.50;4982876;28;19985;-79
2021/11/30 17:30:32;;;;;;;;;;;;;;;6.00;60.49;100773.13;4982546;28;19918;-79
2021/11/30 17:32:59;;;;;;;;;;;;;;;5.84;61.30;100780.16;4982486;28;19925;-79
2021/11/30 17:35:26;;;;;;;;;;;;;;;5.74;61.69;100772.94;4982273;28;19918;-79
2021/11/30 17:41:16;;;;;;;;;;;;;;;5.66;62.79;100784.78;4982831;28;20341;-79
2021/11/30 17:43:42;;;;;;;;;;;;;;;5.62;60.19;100787.34;4981583;28;19918;-79
2021/11/30 17:46:08;;;;;;;;;;;;;;;5.57;61.13;100783.88;4965797;28;20425;-79
2021/11/30 17:51:39;;;;;;;;;;;;;;;5.43;59.38;100786.72;4983425;28;19922;-78
2021/11/30 17:54:05;;;;;;;;;;;;;;;5.48;59.99;100784.63;4965631;28;19918;-78
2021/11/30 17:59:57;;;;;;;;;;;;;;;5.59;62.04;100782.44;4983703;28;19973;-79
2021/11/30 18:02:30;;;;;;;;;;;;;;;5.52;63.23;100790.34;4983903;28;19939;-80
2021/11/30 18:04:55;;;;;;;;;;;;;;;5.39;60.88;100785.72;4983648;28;20293;-79
2021/11/30 18:07:27;;;;;;;;;;;;;;;5.32;60.42;100788.91;4965180;28;19918;-79
2021/11/30 18:09:52;;;;;;;;;;;;;;;5.62;60.40;100790.09;4964217;28;19925;-79
2021/11/30 18:12:18;;;;;;;;;;;;;;;5.51;61.61;100794.25;4981696;28;19918;-79
2021/11/30 18:15:05;;;;;;;;;;;;;;;5.50;57.29;100803.66;4981705;28;19941;-79
2021/11/30 18:17:31;;;;;;;;;;;;;;;5.49;57.56;100802.84;4981856;28;19918;-78
2021/11/30 18:19:59;;;;;;;;;;;;;;;5.52;61.55;100807.72;4964445;28;20392;-79
2021/11/30 18:22:45;;;;;;;;;;;;;;;5.43;61.24;100812.38;4964059;28;19918;-78
2021/11/30 18:25:10;;;;;;;;;;;;;;;5.39;60.35;100807.81;4980163;28;19926;-78
2021/11/30 18:27:36;;;;;;;;;;;;;;;5.32;60.77;100808.22;4961334;28;20006;-79
2021/11/30 18:30:20;;;;;;;;;;;;;;;5.36;61.48;100808.41;4961935;28;19918;-78
2021/11/30 18:32:46;;;;;;;;;;;;;;;5.37;61.29;100815.56;4977402;28;19922;-79
2021/11/30 18:35:11;;;;;;;;;;;;;;;5.40;61.30;100821.28;4977182;28;20504;-78
2021/11/30 18:37:45;;;;;;;;;;;;;;;5.36;63.44;100820.25;4978768;28;19930;-78
2021/11/30 18:40:11;;;;;;;;;;;;;;;5.46;63.41;100820.03;4978201;28;19918;-78
2021/11/30 18:42:37;;;;;;;;;;;;;;;5.38;63.75;100822.69;4960618;28;19918;-79
2021/11/30 18:45:03;;;;;;;;;;;;;;;5.45;62.66;100828.63;4978417;28;19918;-78
2021/11/30 18:47:28;;;;;;;;;;;;;;;5.48;63.10;100834.31;4960985;28;19922;-77
2021/11/30 18:49:54;;;;;;;;;;;;;;;5.47;64.48;100835.44;4977070;28;19918;-78
2021/11/30 18:52:19;;;;;;;;;;;;;;;5.47;63.20;100837.41;4960826;28;20376;-77
2021/11/30 18:54:50;;;;;;;;;;;;;;;5.40;64.27;100837.03;4961061;28;19918;-77
2021/11/30 18:57:17;;;;;;;;;;;;;;;5.25;63.46;100825.22;4960715;28;19918;-78
2021/11/30 18:59:43;;;;;;;;;;;;;;;5.39;64.33;100827.13;4977028;28;20333;-78
2021/11/30 19:02:22;;;;;;;;;;;;;;;5.32;64.51;100840.50;4961264;28;19918;-78
2021/11/30 19:04:47;;;;;;;;;;;;;;;5.39;65.02;100830.69;4978292;28;19922;-78
2021/11/30 19:07:15;;;;;;;;;;;;;;;5.43;65.02;100833.63;4977641;28;19925;-77
2021/11/30 19:10:07;;;;;;;;;;;;;;;5.38;64.42;100828.22;4976199;28;20005;-77
2021/11/30 19:12:32;;;;;;;;;;;;;;;5.32;66.01;100835.81;4978114;28;20349;-78
2021/11/30 19:14:58;;;;;;;;;;;;;;;5.34;65.99;100833.56;4960518;28;19918;-78
2021/11/30 19:17:50;;;;;;;;;;;;;;;5.26;66.74;100832.34;4960622;28;19918;-78
2021/11/30 19:20:15;;;;;;;;;;;;;;;5.25;66.17;100833.47;4978014;28;19918;-78
2021/11/30 19:22:41;;;;;;;;;;;;;;;5.14;67.39;100829.34;4960473;28;20416;-79
2021/11/30 19:28:12;;;;;;;;;;;;;;;5.11;67.24;100834.66;4977595;28;20057;-78
2021/11/30 19:30:38;;;;;;;;;;;;;;;5.08;66.98;100841.63;4960362;28;19969;-78
2021/11/30 19:33:03;;;;;;;;;;;;;;;5.07;67.07;100845.50;4976240;28;20425;-78
2021/11/30 19:35:41;;;;;;;;;;;;;;;5.07;66.55;100839.97;4960545;28;19918;-78
2021/11/30 19:38:08;;;;;;;;;;;;;;;5.03;68.06;100832.63;4959641;28;19918;-78
2021/11/30 19:40:40;;;;;;;;;;;;;;;4.97;67.64;100848.47;4959842;28;19918;-78
2021/11/30 19:43:11;;;;;;;;;;;;;;;4.97;67.19;100851.25;4961863;28;19918;-78
2021/11/30 19:45:36;;;;;;;;;;;;;;;4.98;68.78;100847.34;4959888;28;20392;-78
2021/11/30 19:48:24;;;;;;;;;;;;;;;4.92;68.75;100837.56;4959546;28;19918;-78
2021/11/30 19:50:50;;;;;;;;;;;;;;;4.96;69.33;100833.88;4976817;28;19922;-78
2021/11/30 19:53:15;;;;;;;;;;;;;;;4.96;68.35;100838.56;4959540;28;19925;-78
2021/11/30 19:55:41;;;;;;;;;;;;;;;4.99;67.57;100835.19;4976990;28;19950;-78
2021/11/30 19:58:07;;;;;;;;;;;;;;;4.97;67.71;100837.44;4976449;28;19968;-78
2021/11/30 20:06:04;;;;;;;;;;;;;;;4.84;67.94;100844.59;4976953;28;20012;-78
2021/11/30 20:08:38;;;;;;;;;;;;;;;4.82;67.50;100840.53;4977145;28;20057;-78
2021/11/30 20:11:03;;;;;;;;;;;;;;;4.71;69.41;100843.50;4976738;28;19925;-78
2021/11/30 20:13:30;;;;;;;;;;;;;;;4.70;69.33;100844.63;4976936;28;20353;-78
2021/11/30 20:16:08;;;;;;;;;;;;;;;4.61;68.94;100840.94;4959523;28;19918;-79
2021/11/30 20:18:35;;;;;;;;;;;;;;;4.50;69.25;100842.28;4977004;28;20352;-79
2021/11/30 20:21:02;;;;;;;;;;;;;;;4.50;70.18;100842.28;4977137;28;19930;-79
2021/11/30 20:23:31;;;;;;;;;;;;;;;4.55;69.46;100844.94;4976506;28;19918;-79
2021/11/30 20:25:56;;;;;;;;;;;;;;;4.65;68.00;100844.72;4959770;28;19957;-79
2021/11/30 20:28:22;;;;;;;;;;;;;;;4.66;66.93;100846.34;4958890;28;20349;-79
2021/11/30 20:30:48;;;;;;;;;;;;;;;4.62;67.76;100850.84;4958945;28;19922;-78
2021/11/30 20:33:14;;;;;;;;;;;;;;;4.64;68.21;100854.13;4959911;28;20337;-79
2021/11/30 20:41:25;;;;;;;;;;;;;;;4.66;69.16;100851.88;4977174;28;19997;-78
2021/11/30 20:43:51;;;;;;;;;;;;;;;4.55;68.52;100861.47;4975264;28;19992;-78
2021/11/30 20:46:17;;;;;;;;;;;;;;;4.57;70.05;100864.72;4975603;28;19957;-79
2021/11/30 20:48:42;;;;;;;;;;;;;;;4.56;69.46;100862.28;4976643;28;19922;-79
2021/11/30 20:51:08;;;;;;;;;;;;;;;4.56;68.39;100868.63;4975785;28;20385;-79
2021/11/30 20:53:34;;;;;;;;;;;;;;;4.64;66.60;100859.66;4959360;28;19918;-79
2021/11/30 20:55:59;;;;;;;;;;;;;;;4.60;69.71;100853.09;4959175;28;19925;-79
2021/11/30 20:58:27;;;;;;;;;;;;;;;4.60;68.28;100850.34;4975085;28;19925;-79
2021/11/30 21:01:07;;;;;;;;;;;;;;;4.60;69.03;100855.88;4959199;28;19925;-79
2021/11/30 21:03:34;;;;;;;;;;;;;;;4.64;69.82;100859.66;4976149;28;19953;-79
2021/11/30 21:06:00;;;;;;;;;;;;;;;4.63;69.88;100869.00;4959285;28;19924;-79
2021/11/30 21:08:29;;;;;;;;;;;;;;;4.67;70.20;100855.44;4975633;28;20358;-79
2021/11/30 21:10:54;;;;;;;;;;;;;;;4.69;68.92;100859.53;4959030;28;19918;-79
2021/11/30 21:13:21;;;;;;;;;;;;;;;4.79;69.95;100860.44;4958454;28;20266;-79
2021/11/30 21:15:49;;;;;;;;;;;;;;;4.78;68.96;100864.31;4958428;28;19954;-79
2021/11/30 21:18:15;;;;;;;;;;;;;;;4.76;68.41;100866.59;4959271;28;19973;-79
2021/11/30 21:20:40;;;;;;;;;;;;;;;4.70;66.54;100863.13;4976258;28;19961;-79
2021/11/30 21:23:10;;;;;;;;;;;;;;;4.82;66.58;100865.34;4976527;28;19924;-79
2021/11/30 21:26:04;;;;;;;;;;;;;;;4.70;67.50;100872.19;4958763;28;19918;-79
2021/11/30 21:28:29;;;;;;;;;;;;;;;4.68;64.92;100870.84;4976509;28;19918;-79
2021/11/30 21:30:54;;;;;;;;;;;;;;;4.73;67.22;100876.25;4959564;28;20394;-79
2021/11/30 21:33:22;;;;;;;;;;;;;;;4.79;66.36;100865.94;4958265;28;19925;-79
2021/11/30 21:35:48;;;;;;;;;;;;;;;4.84;66.90;100857.56;4976317;28;19922;-79
2021/11/30 21:38:13;;;;;;;;;;;;;;;4.82;66.75;100868.09;4958664;28;19918;-79
2021/11/30 21:40:49;;;;;;;;;;;;;;;4.84;67.35;100863.09;4958152;28;20377;-79
2021/11/30 21:43:15;;;;;;;;;;;;;;;4.81;67.43;100869.22;4958744;28;19918;-79
2021/11/30 21:45:41;;;;;;;;;;;;;;;4.82;67.87;100876.38;4975395;28;19926;-79
2021/11/30 21:48:27;;;;;;;;;;;;;;;4.71;67.97;100871.06;4957661;28;19941;-79
2021/11/30 21:50:52;;;;;;;;;;;;;;;4.73;67.46;100863.28;4975232;28;20270;-79
2021/11/30 21:53:18;;;;;;;;;;;;;;;4.67;67.05;100864.53;4975495;28;19954;-79
2021/11/30 21:55:49;;;;;;;;;;;;;;;4.66;67.71;100876.69;4975469;28;19918;-79
2021/11/30 21:58:15;;;;;;;;;;;;;;;4.51;65.79;100870.66;4974524;28;19918;-79
2021/11/30 22:00:40;;;;;;;;;;;;;;;4.57;67.42;100875.75;4975916;28;19922;-79
2021/11/30 22:03:07;;;;;;;;;;;;;;;4.53;66.12;100876.66;4976338;28;20305;-79
2021/11/30 22:05:37;;;;;;;;;;;;;;;4.38;63.71;100883.31;4962702;28;20261;-79
2021/11/30 22:08:07;;;;;;;;;;;;;;;4.36;65.68;100880.84;4977686;28;19918;-79
2021/11/30 22:10:32;;;;;;;;;;;;;;;4.35;66.57;100876.44;4978820;28;19918;-79
2021/11/30 22:12:58;;;;;;;;;;;;;;;4.45;65.66;100876.25;4983027;28;20334;-79
2021/11/30 22:15:25;;;;;;;;;;;;;;;4.35;66.26;100872.88;4979329;28;19918;-79
2021/11/30 22:17:51;;;;;;;;;;;;;;;4.25;64.98;100867.56;4962276;28;20384;-79
2021/11/30 22:20:19;;;;;;;;;;;;;;;4.28;66.24;100872.47;4978419;28;19918;-79
2021/11/30 22:22:52;;;;;;;;;;;;;;;4.36;66.55;100878.09;4979091;28;19918;-79
2021/11/30 22:25:18;;;;;;;;;;;;;;;4.30;67.09;100870.22;4979060;28;19922;-79
2021/11/30 22:27:45;;;;;;;;;;;;;;;4.31;66.71;100869.09;4962676;28;20269;-79
2021/11/30 22:30:14;;;;;;;;;;;;;;;4.31;67.79;100867.16;4979061;28;20274;-79
2021/11/30 22:32:39;;;;;;;;;;;;;;;4.31;66.87;100872.66;4979321;28;19982;-79
2021/11/30 22:35:05;;;;;;;;;;;;;;;4.33;67.28;100870.44;4962149;28;19918;-79
2021/11/30 22:37:36;;;;;;;;;;;;;;;4.31;66.96;100872.66;4962481;28;20001;-79
2021/11/30 22:40:03;;;;;;;;;;;;;;;4.25;67.81;100873.06;4962064;28;19969;-79
2021/11/30 22:42:29;;;;;;;;;;;;;;;4.25;68.17;100881.34;4962120;28;19918;-79
2021/11/30 22:45:15;;;;;;;;;;;;;;;4.25;67.87;100870.31;4961955;28;20366;-79
2021/11/30 22:47:40;;;;;;;;;;;;;;;4.25;67.29;100871.13;4979136;28;19950;-79
2021/11/30 22:50:06;;;;;;;;;;;;;;;4.24;65.92;100865.94;4979171;28;19945;-79
2021/11/30 22:52:53;;;;;;;;;;;;;;;4.27;65.51;100855.13;4961838;28;19973;-79
2021/11/30 22:55:20;;;;;;;;;;;;;;;4.35;66.78;100856.34;4978853;28;19918;-79
2021/11/30 22:57:46;;;;;;;;;;;;;;;4.28;66.93;100854.00;4962826;28;19918;-79
2021/11/30 23:00:15;;;;;;;;;;;;;;;4.33;66.59;100853.09;4961849;28;19925;-79
2021/11/30 23:02:41;;;;;;;;;;;;;;;4.30;67.00;100860.03;4978063;28;19918;-78
2021/11/30 23:05:07;;;;;;;;;;;;;;;4.21;65.49;100853.59;4961790;28;19972;-79
2021/11/30 23:07:45;;;;;;;;;;;;;;;4.24;65.49;100849.41;4977987;28;20013;-79
2021/11/30 23:10:11;;;;;;;;;;;;;;;4.29;66.10;100852.06;4979193;28;19918;-79
2021/11/30 23:12:37;;;;;;;;;;;;;;;4.29;66.09;100858.38;4978970;28;19925;-78
2021/11/30 23:15:21;;;;;;;;;;;;;;;4.41;67.85;100855.13;4980243;28;20329;-79
2021/11/30 23:17:48;;;;;;;;;;;;;;;4.33;68.24;100850.34;4992211;28;19918;-79
2021/11/30 23:20:13;;;;;;;;;;;;;;;4.31;68.21;100850.63;4989440;28;19965;-78
2021/11/30 23:25:54;;;;;;;;;;;;;;;4.27;66.31;100844.13;4978113;28;19925;-79
2021/11/30 23:28:27;;;;;;;;;;;;;;;4.28;68.30;100842.19;4961219;28;20266;-79
2021/11/30 23:30:54;;;;;;;;;;;;;;;4.30;68.97;100831.66;4977250;28;19918;-79
2021/11/30 23:33:24;;;;;;;;;;;;;;;4.42;66.22;100829.19;4977430;28;19954;-79
2021/11/30 23:35:59;;;;;;;;;;;;;;;4.39;65.70;100824.31;4960472;28;20004;-79
2021/11/30 23:38:26;;;;;;;;;;;;;;;4.32;67.13;100838.50;4959628;28;20380;-79
2021/11/30 23:40:52;;;;;;;;;;;;;;;4.28;66.99;100839.41;4960283;28;20404;-79
2021/11/30 23:43:17;;;;;;;;;;;;;;;4.29;67.15;100835.53;4977878;28;19922;-79
2021/11/30 23:45:45;;;;;;;;;;;;;;;4.30;67.23;100837.97;4975751;28;19918;-78
2021/11/30 23:48:11;;;;;;;;;;;;;;;4.23;67.26;100825.75;4977488;28;19918;-78
2021/11/30 23:50:36;;;;;;;;;;;;;;;4.32;66.64;100835.75;4959567;28;19929;-78
2021/11/30 23:53:03;;;;;;;;;;;;;;;4.25;66.48;100826.25;4975990;28;19918;-78
2021/11/30 23:55:28;;;;;;;;;;;;;;;4.26;66.55;100827.88;4959902;28;19925;-78
2021/11/30 23:57:54;;;;;;;;;;;;;;;4.25;67.58;100835.31;4975638;28;19918;-79
